Main page
Satellite images Climate Cyclones Lightning AirportsFAQ Languages Contact Newsletter About
Weather : Europe Africa North America South America Asia Australia-Oceania Others

5355, Surat Thani, Surat Thani Airport

48551

latitude: , longitude: Thailand, elevation: 09-07N m


METAR: VTSB 270000Z 14003KT 6000 FEW020 25/24 Q1007